sensor_id;sensor_type;location;lat;lon;timestamp;P1;durP1;ratioP1;P2;durP2;ratioP2
59418;SDS011;45224;50.904;6.038;2023-12-22T00:01:07;3.92;;;0.90;;
59418;SDS011;45224;50.904;6.038;2023-12-22T00:02:38;7.47;;;1.65;;
59418;SDS011;45224;50.904;6.038;2023-12-22T00:04:08;6.20;;;1.10;;
59418;SDS011;45224;50.904;6.038;2023-12-22T00:05:39;6.78;;;1.05;;
59418;SDS011;45224;50.904;6.038;2023-12-22T00:07:09;6.40;;;1.05;;
59418;SDS011;45224;50.904;6.038;2023-12-22T00:08:39;6.18;;;1.45;;
59418;SDS011;45224;50.904;6.038;2023-12-22T00:10:10;7.80;;;1.00;;
59418;SDS011;45224;50.904;6.038;2023-12-22T00:11:40;5.95;;;1.13;;
59418;SDS011;45224;50.904;6.038;2023-12-22T00:13:11;8.38;;;1.23;;
59418;SDS011;45224;50.904;6.038;2023-12-22T00:14:41;6.15;;;1.10;;
59418;SDS011;45224;50.904;6.038;2023-12-22T00:16:12;16.15;;;1.85;;
59418;SDS011;45224;50.904;6.038;2023-12-22T00:17:42;6.00;;;1.40;;
59418;SDS011;45224;50.904;6.038;2023-12-22T00:19:13;8.98;;;1.55;;
59418;SDS011;45224;50.904;6.038;2023-12-22T00:20:43;6.93;;;1.17;;
59418;SDS011;45224;50.904;6.038;2023-12-22T00:22:14;11.18;;;1.55;;
59418;SDS011;45224;50.904;6.038;2023-12-22T00:23:44;11.27;;;1.73;;
59418;SDS011;45224;50.904;6.038;2023-12-22T00:25:14;10.18;;;1.48;;
59418;SDS011;45224;50.904;6.038;2023-12-22T00:26:45;5.90;;;1.70;;
59418;SDS011;45224;50.904;6.038;2023-12-22T00:28:16;11.00;;;1.88;;
59418;SDS011;45224;50.904;6.038;2023-12-22T00:29:46;7.20;;;1.35;;
59418;SDS011;45224;50.904;6.038;2023-12-22T00:31:16;8.70;;;1.42;;
59418;SDS011;45224;50.904;6.038;2023-12-22T00:32:47;8.43;;;1.08;;
59418;SDS011;45224;50.904;6.038;2023-12-22T00:34:17;7.85;;;1.63;;
59418;SDS011;45224;50.904;6.038;2023-12-22T00:35:49;5.95;;;0.70;;
59418;SDS011;45224;50.904;6.038;2023-12-22T00:37:20;11.43;;;1.30;;
59418;SDS011;45224;50.904;6.038;2023-12-22T00:38:50;4.47;;;1.00;;
59418;SDS011;45224;50.904;6.038;2023-12-22T00:40:21;8.60;;;1.45;;
59418;SDS011;45224;50.904;6.038;2023-12-22T00:41:51;7.25;;;0.93;;
59418;SDS011;45224;50.904;6.038;2023-12-22T00:43:22;8.70;;;0.93;;
59418;SDS011;45224;50.904;6.038;2023-12-22T00:44:52;6.28;;;1.20;;
59418;SDS011;45224;50.904;6.038;2023-12-22T00:46:22;7.10;;;1.20;;
59418;SDS011;45224;50.904;6.038;2023-12-22T00:47:53;5.97;;;1.40;;
59418;SDS011;45224;50.904;6.038;2023-12-22T00:49:23;11.18;;;1.60;;
59418;SDS011;45224;50.904;6.038;2023-12-22T00:50:54;9.10;;;1.77;;
59418;SDS011;45224;50.904;6.038;2023-12-22T00:52:24;8.75;;;1.38;;
59418;SDS011;45224;50.904;6.038;2023-12-22T00:53:55;13.73;;;1.80;;
59418;SDS011;45224;50.904;6.038;2023-12-22T00:55:25;6.38;;;1.00;;
59418;SDS011;45224;50.904;6.038;2023-12-22T00:56:55;9.93;;;1.15;;
59418;SDS011;45224;50.904;6.038;2023-12-22T00:58:26;8.85;;;1.70;;
59418;SDS011;45224;50.904;6.038;2023-12-22T00:59:56;8.63;;;1.13;;
59418;SDS011;45224;50.904;6.038;2023-12-22T01:01:27;9.00;;;1.40;;
59418;SDS011;45224;50.904;6.038;2023-12-22T01:02:57;7.65;;;1.58;;
59418;SDS011;45224;50.904;6.038;2023-12-22T01:04:28;9.85;;;1.33;;
59418;SDS011;45224;50.904;6.038;2023-12-22T01:05:58;7.97;;;1.63;;
59418;SDS011;45224;50.904;6.038;2023-12-22T01:07:28;4.90;;;1.05;;
59418;SDS011;45224;50.904;6.038;2023-12-22T01:08:59;8.73;;;1.33;;
59418;SDS011;45224;50.904;6.038;2023-12-22T01:10:29;9.25;;;1.60;;
59418;SDS011;45224;50.904;6.038;2023-12-22T01:12:00;5.53;;;1.08;;
59418;SDS011;45224;50.904;6.038;2023-12-22T01:13:33;6.20;;;1.10;;
59418;SDS011;45224;50.904;6.038;2023-12-22T01:15:03;7.18;;;1.00;;
59418;SDS011;45224;50.904;6.038;2023-12-22T01:16:34;7.80;;;1.73;;
59418;SDS011;45224;50.904;6.038;2023-12-22T01:18:04;10.77;;;1.83;;
59418;SDS011;45224;50.904;6.038;2023-12-22T01:19:35;6.80;;;1.50;;
59418;SDS011;45224;50.904;6.038;2023-12-22T01:21:05;6.47;;;1.35;;
59418;SDS011;45224;50.904;6.038;2023-12-22T01:22:36;7.72;;;1.38;;
59418;SDS011;45224;50.904;6.038;2023-12-22T01:24:08;8.80;;;1.40;;
59418;SDS011;45224;50.904;6.038;2023-12-22T01:25:38;12.75;;;1.80;;
59418;SDS011;45224;50.904;6.038;2023-12-22T01:27:09;8.77;;;1.50;;
59418;SDS011;45224;50.904;6.038;2023-12-22T01:28:40;6.07;;;1.00;;
59418;SDS011;45224;50.904;6.038;2023-12-22T01:30:10;9.80;;;1.42;;
59418;SDS011;45224;50.904;6.038;2023-12-22T01:31:41;13.80;;;1.40;;
59418;SDS011;45224;50.904;6.038;2023-12-22T01:33:11;7.75;;;1.65;;
59418;SDS011;45224;50.904;6.038;2023-12-22T01:34:42;8.38;;;0.90;;
59418;SDS011;45224;50.904;6.038;2023-12-22T01:36:12;10.32;;;1.52;;
59418;SDS011;45224;50.904;6.038;2023-12-22T01:37:43;4.00;;;1.08;;
59418;SDS011;45224;50.904;6.038;2023-12-22T01:39:14;6.82;;;1.27;;
59418;SDS011;45224;50.904;6.038;2023-12-22T01:40:44;9.93;;;1.52;;
59418;SDS011;45224;50.904;6.038;2023-12-22T01:42:14;2.97;;;0.90;;
59418;SDS011;45224;50.904;6.038;2023-12-22T01:43:45;6.25;;;0.90;;
59418;SDS011;45224;50.904;6.038;2023-12-22T01:45:15;4.72;;;0.85;;
59418;SDS011;45224;50.904;6.038;2023-12-22T01:46:46;5.50;;;1.08;;
59418;SDS011;45224;50.904;6.038;2023-12-22T01:48:16;4.20;;;1.05;;
59418;SDS011;45224;50.904;6.038;2023-12-22T01:49:47;7.07;;;1.00;;
59418;SDS011;45224;50.904;6.038;2023-12-22T01:51:18;4.82;;;0.90;;
59418;SDS011;45224;50.904;6.038;2023-12-22T01:52:49;4.57;;;0.63;;
59418;SDS011;45224;50.904;6.038;2023-12-22T01:54:20;6.82;;;1.70;;
59418;SDS011;45224;50.904;6.038;2023-12-22T01:55:50;10.30;;;1.83;;
59418;SDS011;45224;50.904;6.038;2023-12-22T01:57:22;5.60;;;1.05;;
59418;SDS011;45224;50.904;6.038;2023-12-22T01:58:54;7.25;;;1.00;;
59418;SDS011;45224;50.904;6.038;2023-12-22T02:00:27;8.35;;;1.60;;
59418;SDS011;45224;50.904;6.038;2023-12-22T02:01:58;4.95;;;1.20;;
59418;SDS011;45224;50.904;6.038;2023-12-22T02:03:28;5.93;;;1.10;;
59418;SDS011;45224;50.904;6.038;2023-12-22T02:05:00;9.32;;;1.40;;
59418;SDS011;45224;50.904;6.038;2023-12-22T02:06:30;5.28;;;1.13;;
59418;SDS011;45224;50.904;6.038;2023-12-22T02:08:03;4.63;;;1.30;;
59418;SDS011;45224;50.904;6.038;2023-12-22T02:09:34;4.80;;;1.30;;
59418;SDS011;45224;50.904;6.038;2023-12-22T02:11:05;5.25;;;1.05;;
59418;SDS011;45224;50.904;6.038;2023-12-22T02:12:36;8.82;;;1.73;;
59418;SDS011;45224;50.904;6.038;2023-12-22T02:14:07;7.22;;;1.15;;
59418;SDS011;45224;50.904;6.038;2023-12-22T02:15:38;6.78;;;1.17;;
59418;SDS011;45224;50.904;6.038;2023-12-22T02:18:46;5.22;;;0.95;;
59418;SDS011;45224;50.904;6.038;2023-12-22T02:20:21;9.15;;;1.33;;
59418;SDS011;45224;50.904;6.038;2023-12-22T02:23:32;6.63;;;1.02;;
59418;SDS011;45224;50.904;6.038;2023-12-22T02:25:02;9.82;;;1.27;;
59418;SDS011;45224;50.904;6.038;2023-12-22T02:26:37;7.18;;;1.83;;
59418;SDS011;45224;50.904;6.038;2023-12-22T02:28:15;7.10;;;1.33;;
59418;SDS011;45224;50.904;6.038;2023-12-22T02:29:50;5.95;;;1.10;;
59418;SDS011;45224;50.904;6.038;2023-12-22T02:31:35;7.03;;;1.40;;
59418;SDS011;45224;50.904;6.038;2023-12-22T02:33:15;4.65;;;1.13;;
59418;SDS011;45224;50.904;6.038;2023-12-22T02:34:46;7.63;;;1.60;;
59418;SDS011;45224;50.904;6.038;2023-12-22T02:36:20;7.47;;;1.25;;
59418;SDS011;45224;50.904;6.038;2023-12-22T02:37:52;12.43;;;2.00;;
59418;SDS011;45224;50.904;6.038;2023-12-22T02:39:24;6.47;;;1.10;;
59418;SDS011;45224;50.904;6.038;2023-12-22T02:40:54;11.00;;;1.83;;
59418;SDS011;45224;50.904;6.038;2023-12-22T02:42:25;8.10;;;1.20;;
59418;SDS011;45224;50.904;6.038;2023-12-22T02:44:00;9.10;;;1.40;;
59418;SDS011;45224;50.904;6.038;2023-12-22T02:45:31;6.68;;;1.10;;
59418;SDS011;45224;50.904;6.038;2023-12-22T02:47:02;8.82;;;1.55;;
59418;SDS011;45224;50.904;6.038;2023-12-22T02:48:32;9.65;;;1.55;;
59418;SDS011;45224;50.904;6.038;2023-12-22T02:50:03;7.50;;;1.15;;
59418;SDS011;45224;50.904;6.038;2023-12-22T02:51:34;6.80;;;1.25;;
59418;SDS011;45224;50.904;6.038;2023-12-22T02:53:04;9.10;;;1.15;;
59418;SDS011;45224;50.904;6.038;2023-12-22T02:54:34;9.35;;;1.52;;
59418;SDS011;45224;50.904;6.038;2023-12-22T02:56:05;7.45;;;1.00;;
59418;SDS011;45224;50.904;6.038;2023-12-22T02:57:36;7.97;;;1.13;;
59418;SDS011;45224;50.904;6.038;2023-12-22T02:59:06;10.15;;;1.35;;
59418;SDS011;45224;50.904;6.038;2023-12-22T03:00:37;6.85;;;1.40;;
59418;SDS011;45224;50.904;6.038;2023-12-22T03:02:08;11.13;;;1.38;;
59418;SDS011;45224;50.904;6.038;2023-12-22T03:03:38;10.05;;;1.83;;
59418;SDS011;45224;50.904;6.038;2023-12-22T03:05:09;9.07;;;1.42;;
59418;SDS011;45224;50.904;6.038;2023-12-22T03:06:39;5.43;;;0.70;;
59418;SDS011;45224;50.904;6.038;2023-12-22T03:08:09;9.65;;;1.08;;
59418;SDS011;45224;50.904;6.038;2023-12-22T03:09:40;6.85;;;1.25;;
59418;SDS011;45224;50.904;6.038;2023-12-22T03:11:12;8.90;;;1.60;;
59418;SDS011;45224;50.904;6.038;2023-12-22T03:12:42;6.72;;;1.23;;
59418;SDS011;45224;50.904;6.038;2023-12-22T03:14:13;3.45;;;0.75;;
59418;SDS011;45224;50.904;6.038;2023-12-22T03:15:43;5.57;;;0.95;;
59418;SDS011;45224;50.904;6.038;2023-12-22T03:17:13;4.50;;;1.30;;
59418;SDS011;45224;50.904;6.038;2023-12-22T03:18:44;7.97;;;1.13;;
59418;SDS011;45224;50.904;6.038;2023-12-22T03:20:15;4.43;;;1.10;;
59418;SDS011;45224;50.904;6.038;2023-12-22T03:21:45;5.10;;;1.05;;
59418;SDS011;45224;50.904;6.038;2023-12-22T03:23:16;5.75;;;1.10;;
59418;SDS011;45224;50.904;6.038;2023-12-22T03:24:46;8.20;;;1.35;;
59418;SDS011;45224;50.904;6.038;2023-12-22T03:26:16;8.32;;;1.10;;
59418;SDS011;45224;50.904;6.038;2023-12-22T03:27:47;8.25;;;1.48;;
59418;SDS011;45224;50.904;6.038;2023-12-22T03:29:18;6.90;;;1.17;;
59418;SDS011;45224;50.904;6.038;2023-12-22T03:30:48;6.82;;;1.35;;
59418;SDS011;45224;50.904;6.038;2023-12-22T03:32:19;5.05;;;1.08;;
59418;SDS011;45224;50.904;6.038;2023-12-22T03:33:49;9.25;;;1.42;;
59418;SDS011;45224;50.904;6.038;2023-12-22T03:35:20;5.65;;;1.30;;
59418;SDS011;45224;50.904;6.038;2023-12-22T03:36:50;6.88;;;1.15;;
59418;SDS011;45224;50.904;6.038;2023-12-22T03:38:21;10.20;;;0.90;;
59418;SDS011;45224;50.904;6.038;2023-12-22T03:39:51;6.13;;;1.02;;
59418;SDS011;45224;50.904;6.038;2023-12-22T03:41:22;8.43;;;1.10;;
59418;SDS011;45224;50.904;6.038;2023-12-22T03:42:52;4.18;;;0.98;;
59418;SDS011;45224;50.904;6.038;2023-12-22T03:44:23;7.72;;;1.02;;
59418;SDS011;45224;50.904;6.038;2023-12-22T03:45:53;13.00;;;2.20;;
59418;SDS011;45224;50.904;6.038;2023-12-22T03:47:23;3.92;;;1.42;;
59418;SDS011;45224;50.904;6.038;2023-12-22T03:48:54;3.95;;;1.10;;
59418;SDS011;45224;50.904;6.038;2023-12-22T03:50:24;8.13;;;1.02;;
59418;SDS011;45224;50.904;6.038;2023-12-22T03:51:55;5.72;;;1.20;;
59418;SDS011;45224;50.904;6.038;2023-12-22T03:53:25;10.20;;;1.85;;
59418;SDS011;45224;50.904;6.038;2023-12-22T03:54:56;8.30;;;1.70;;
59418;SDS011;45224;50.904;6.038;2023-12-22T03:56:27;6.68;;;1.20;;
59418;SDS011;45224;50.904;6.038;2023-12-22T03:57:57;7.82;;;1.30;;
59418;SDS011;45224;50.904;6.038;2023-12-22T03:59:28;6.40;;;1.08;;
59418;SDS011;45224;50.904;6.038;2023-12-22T04:00:58;10.07;;;1.40;;
59418;SDS011;45224;50.904;6.038;2023-12-22T04:02:28;9.82;;;1.55;;
59418;SDS011;45224;50.904;6.038;2023-12-22T04:03:59;12.00;;;1.58;;
59418;SDS011;45224;50.904;6.038;2023-12-22T04:05:29;11.95;;;1.60;;
59418;SDS011;45224;50.904;6.038;2023-12-22T04:07:00;8.38;;;1.48;;
59418;SDS011;45224;50.904;6.038;2023-12-22T04:08:30;8.77;;;1.65;;
59418;SDS011;45224;50.904;6.038;2023-12-22T04:10:00;6.05;;;1.33;;
59418;SDS011;45224;50.904;6.038;2023-12-22T04:11:31;9.05;;;1.73;;
59418;SDS011;45224;50.904;6.038;2023-12-22T04:13:02;9.00;;;1.38;;
59418;SDS011;45224;50.904;6.038;2023-12-22T04:14:33;10.70;;;2.38;;
59418;SDS011;45224;50.904;6.038;2023-12-22T04:16:03;5.97;;;1.27;;
59418;SDS011;45224;50.904;6.038;2023-12-22T04:17:35;6.93;;;1.77;;
59418;SDS011;45224;50.904;6.038;2023-12-22T04:19:05;9.48;;;1.27;;
59418;SDS011;45224;50.904;6.038;2023-12-22T04:20:36;8.27;;;1.67;;
59418;SDS011;45224;50.904;6.038;2023-12-22T04:22:06;10.63;;;1.80;;
59418;SDS011;45224;50.904;6.038;2023-12-22T04:23:37;10.63;;;1.98;;
59418;SDS011;45224;50.904;6.038;2023-12-22T04:25:07;8.63;;;1.83;;
59418;SDS011;45224;50.904;6.038;2023-12-22T04:26:38;10.73;;;1.88;;
59418;SDS011;45224;50.904;6.038;2023-12-22T04:28:08;8.90;;;1.50;;
59418;SDS011;45224;50.904;6.038;2023-12-22T04:29:39;7.72;;;1.42;;
59418;SDS011;45224;50.904;6.038;2023-12-22T04:31:09;9.95;;;1.25;;
59418;SDS011;45224;50.904;6.038;2023-12-22T04:32:40;10.25;;;1.85;;
59418;SDS011;45224;50.904;6.038;2023-12-22T04:34:12;8.70;;;1.60;;
59418;SDS011;45224;50.904;6.038;2023-12-22T04:35:44;7.07;;;1.65;;
59418;SDS011;45224;50.904;6.038;2023-12-22T04:37:14;6.50;;;1.60;;
59418;SDS011;45224;50.904;6.038;2023-12-22T04:38:45;11.23;;;1.60;;
59418;SDS011;45224;50.904;6.038;2023-12-22T04:40:15;9.63;;;1.30;;
59418;SDS011;45224;50.904;6.038;2023-12-22T04:41:46;10.93;;;2.15;;
59418;SDS011;45224;50.904;6.038;2023-12-22T04:43:16;9.23;;;2.30;;
59418;SDS011;45224;50.904;6.038;2023-12-22T04:44:46;11.02;;;1.70;;
59418;SDS011;45224;50.904;6.038;2023-12-22T04:46:17;12.23;;;1.90;;
59418;SDS011;45224;50.904;6.038;2023-12-22T04:47:47;13.40;;;1.92;;
59418;SDS011;45224;50.904;6.038;2023-12-22T04:49:18;10.40;;;1.80;;
59418;SDS011;45224;50.904;6.038;2023-12-22T04:50:48;8.48;;;1.60;;
59418;SDS011;45224;50.904;6.038;2023-12-22T04:52:19;10.95;;;1.50;;
59418;SDS011;45224;50.904;6.038;2023-12-22T04:53:49;10.60;;;1.73;;
59418;SDS011;45224;50.904;6.038;2023-12-22T04:55:20;13.73;;;2.15;;
59418;SDS011;45224;50.904;6.038;2023-12-22T04:56:50;9.98;;;1.80;;
59418;SDS011;45224;50.904;6.038;2023-12-22T04:58:21;8.48;;;1.58;;
59418;SDS011;45224;50.904;6.038;2023-12-22T04:59:52;6.63;;;0.93;;
59418;SDS011;45224;50.904;6.038;2023-12-22T05:01:23;8.73;;;1.33;;
59418;SDS011;45224;50.904;6.038;2023-12-22T05:02:53;7.07;;;1.45;;
59418;SDS011;45224;50.904;6.038;2023-12-22T05:04:23;9.10;;;1.30;;
59418;SDS011;45224;50.904;6.038;2023-12-22T05:05:54;7.22;;;1.42;;
59418;SDS011;45224;50.904;6.038;2023-12-22T05:07:24;7.50;;;1.30;;
59418;SDS011;45224;50.904;6.038;2023-12-22T05:08:55;3.85;;;1.30;;
59418;SDS011;45224;50.904;6.038;2023-12-22T05:10:26;8.48;;;1.92;;
59418;SDS011;45224;50.904;6.038;2023-12-22T05:11:56;8.80;;;0.98;;
59418;SDS011;45224;50.904;6.038;2023-12-22T05:13:27;6.43;;;1.13;;
59418;SDS011;45224;50.904;6.038;2023-12-22T05:14:57;9.48;;;1.55;;
59418;SDS011;45224;50.904;6.038;2023-12-22T05:16:28;10.43;;;1.80;;
59418;SDS011;45224;50.904;6.038;2023-12-22T05:18:01;9.25;;;1.55;;
59418;SDS011;45224;50.904;6.038;2023-12-22T05:19:31;9.77;;;1.60;;
59418;SDS011;45224;50.904;6.038;2023-12-22T05:21:02;7.38;;;1.25;;
59418;SDS011;45224;50.904;6.038;2023-12-22T05:22:33;6.32;;;1.50;;
59418;SDS011;45224;50.904;6.038;2023-12-22T05:24:03;7.65;;;1.20;;
59418;SDS011;45224;50.904;6.038;2023-12-22T05:25:35;9.05;;;1.50;;
59418;SDS011;45224;50.904;6.038;2023-12-22T05:27:05;9.98;;;1.30;;
59418;SDS011;45224;50.904;6.038;2023-12-22T05:28:35;8.57;;;1.50;;
59418;SDS011;45224;50.904;6.038;2023-12-22T05:30:06;9.40;;;2.15;;
59418;SDS011;45224;50.904;6.038;2023-12-22T05:31:38;10.75;;;1.80;;
59418;SDS011;45224;50.904;6.038;2023-12-22T05:33:08;7.13;;;1.50;;
59418;SDS011;45224;50.904;6.038;2023-12-22T05:34:39;9.88;;;1.58;;
59418;SDS011;45224;50.904;6.038;2023-12-22T05:36:09;8.82;;;1.83;;
59418;SDS011;45224;50.904;6.038;2023-12-22T05:37:41;9.43;;;1.58;;
59418;SDS011;45224;50.904;6.038;2023-12-22T05:39:11;8.02;;;1.50;;
59418;SDS011;45224;50.904;6.038;2023-12-22T05:40:42;11.88;;;1.75;;
59418;SDS011;45224;50.904;6.038;2023-12-22T05:42:12;8.95;;;1.48;;
59418;SDS011;45224;50.904;6.038;2023-12-22T05:43:42;12.85;;;1.58;;
59418;SDS011;45224;50.904;6.038;2023-12-22T05:45:13;8.75;;;1.73;;
59418;SDS011;45224;50.904;6.038;2023-12-22T05:46:44;9.82;;;1.52;;
59418;SDS011;45224;50.904;6.038;2023-12-22T05:48:14;9.85;;;1.50;;
59418;SDS011;45224;50.904;6.038;2023-12-22T05:49:45;9.93;;;1.60;;
59418;SDS011;45224;50.904;6.038;2023-12-22T05:51:15;11.20;;;2.03;;
59418;SDS011;45224;50.904;6.038;2023-12-22T05:52:46;8.50;;;1.58;;
59418;SDS011;45224;50.904;6.038;2023-12-22T05:54:16;14.77;;;1.77;;
59418;SDS011;45224;50.904;6.038;2023-12-22T05:55:49;8.85;;;1.48;;
59418;SDS011;45224;50.904;6.038;2023-12-22T05:57:19;10.02;;;1.92;;
59418;SDS011;45224;50.904;6.038;2023-12-22T05:58:50;7.63;;;1.50;;
59418;SDS011;45224;50.904;6.038;2023-12-22T06:00:21;11.07;;;1.80;;
59418;SDS011;45224;50.904;6.038;2023-12-22T06:01:55;14.98;;;1.83;;
59418;SDS011;45224;50.904;6.038;2023-12-22T06:03:25;14.80;;;1.95;;
59418;SDS011;45224;50.904;6.038;2023-12-22T06:04:56;11.82;;;2.08;;
59418;SDS011;45224;50.904;6.038;2023-12-22T06:06:26;15.10;;;2.10;;
59418;SDS011;45224;50.904;6.038;2023-12-22T06:07:57;8.50;;;2.13;;
59418;SDS011;45224;50.904;6.038;2023-12-22T06:09:28;12.05;;;2.20;;
59418;SDS011;45224;50.904;6.038;2023-12-22T06:10:58;8.23;;;1.50;;
59418;SDS011;45224;50.904;6.038;2023-12-22T06:12:29;14.60;;;2.08;;
59418;SDS011;45224;50.904;6.038;2023-12-22T06:13:59;7.05;;;1.58;;
59418;SDS011;45224;50.904;6.038;2023-12-22T06:15:29;9.02;;;1.80;;
59418;SDS011;45224;50.904;6.038;2023-12-22T06:17:00;13.77;;;2.33;;
59418;SDS011;45224;50.904;6.038;2023-12-22T06:18:30;8.55;;;1.38;;
59418;SDS011;45224;50.904;6.038;2023-12-22T06:20:01;16.38;;;2.72;;
59418;SDS011;45224;50.904;6.038;2023-12-22T06:21:32;15.65;;;2.05;;
59418;SDS011;45224;50.904;6.038;2023-12-22T06:23:02;14.98;;;2.55;;
59418;SDS011;45224;50.904;6.038;2023-12-22T06:24:34;9.93;;;2.05;;
59418;SDS011;45224;50.904;6.038;2023-12-22T06:26:12;15.95;;;2.22;;
59418;SDS011;45224;50.904;6.038;2023-12-22T06:27:42;16.45;;;2.08;;
59418;SDS011;45224;50.904;6.038;2023-12-22T06:29:15;17.23;;;2.45;;
59418;SDS011;45224;50.904;6.038;2023-12-22T06:30:45;15.25;;;2.20;;
59418;SDS011;45224;50.904;6.038;2023-12-22T06:32:17;14.90;;;2.85;;
59418;SDS011;45224;50.904;6.038;2023-12-22T06:33:47;22.30;;;3.42;;
59418;SDS011;45224;50.904;6.038;2023-12-22T06:35:19;13.43;;;2.30;;
59418;SDS011;45224;50.904;6.038;2023-12-22T06:36:53;15.35;;;3.22;;
59418;SDS011;45224;50.904;6.038;2023-12-22T06:38:24;16.48;;;2.80;;
59418;SDS011;45224;50.904;6.038;2023-12-22T06:39:54;19.95;;;2.50;;
59418;SDS011;45224;50.904;6.038;2023-12-22T06:41:28;17.48;;;2.40;;
59418;SDS011;45224;50.904;6.038;2023-12-22T06:43:00;16.83;;;2.67;;
59418;SDS011;45224;50.904;6.038;2023-12-22T06:44:30;20.17;;;2.85;;
59418;SDS011;45224;50.904;6.038;2023-12-22T06:46:01;15.13;;;2.30;;
59418;SDS011;45224;50.904;6.038;2023-12-22T06:47:32;12.27;;;2.72;;
59418;SDS011;45224;50.904;6.038;2023-12-22T06:49:02;19.13;;;2.90;;
59418;SDS011;45224;50.904;6.038;2023-12-22T06:50:33;15.90;;;2.72;;
59418;SDS011;45224;50.904;6.038;2023-12-22T06:52:04;20.08;;;3.40;;
59418;SDS011;45224;50.904;6.038;2023-12-22T06:53:34;12.23;;;2.10;;
59418;SDS011;45224;50.904;6.038;2023-12-22T06:55:05;16.65;;;2.78;;
59418;SDS011;45224;50.904;6.038;2023-12-22T06:56:35;15.80;;;2.78;;
59418;SDS011;45224;50.904;6.038;2023-12-22T06:58:06;13.75;;;2.15;;
59418;SDS011;45224;50.904;6.038;2023-12-22T06:59:37;14.45;;;2.45;;
59418;SDS011;45224;50.904;6.038;2023-12-22T07:01:07;14.20;;;2.25;;
59418;SDS011;45224;50.904;6.038;2023-12-22T07:02:38;20.55;;;3.05;;
59418;SDS011;45224;50.904;6.038;2023-12-22T07:04:09;17.98;;;2.30;;
59418;SDS011;45224;50.904;6.038;2023-12-22T07:05:39;21.95;;;3.05;;
59418;SDS011;45224;50.904;6.038;2023-12-22T07:07:10;16.05;;;2.65;;
59418;SDS011;45224;50.904;6.038;2023-12-22T07:08:41;14.05;;;2.50;;
59418;SDS011;45224;50.904;6.038;2023-12-22T07:10:12;13.50;;;1.85;;
59418;SDS011;45224;50.904;6.038;2023-12-22T07:11:44;13.77;;;2.40;;
59418;SDS011;45224;50.904;6.038;2023-12-22T07:13:16;15.90;;;2.53;;
59418;SDS011;45224;50.904;6.038;2023-12-22T07:14:46;16.70;;;3.42;;
59418;SDS011;45224;50.904;6.038;2023-12-22T07:16:16;22.30;;;4.03;;
59418;SDS011;45224;50.904;6.038;2023-12-22T07:17:47;21.27;;;3.40;;
59418;SDS011;45224;50.904;6.038;2023-12-22T07:19:17;18.05;;;2.65;;
59418;SDS011;45224;50.904;6.038;2023-12-22T07:20:48;15.15;;;2.30;;
59418;SDS011;45224;50.904;6.038;2023-12-22T07:22:18;14.55;;;2.72;;
59418;SDS011;45224;50.904;6.038;2023-12-22T07:23:49;24.73;;;4.15;;
59418;SDS011;45224;50.904;6.038;2023-12-22T07:25:19;18.48;;;2.70;;
59418;SDS011;45224;50.904;6.038;2023-12-22T07:26:50;17.58;;;2.72;;
59418;SDS011;45224;50.904;6.038;2023-12-22T07:28:20;14.00;;;2.63;;
59418;SDS011;45224;50.904;6.038;2023-12-22T07:29:51;15.23;;;2.65;;
59418;SDS011;45224;50.904;6.038;2023-12-22T07:31:21;19.13;;;3.33;;
59418;SDS011;45224;50.904;6.038;2023-12-22T07:32:52;16.67;;;3.13;;
59418;SDS011;45224;50.904;6.038;2023-12-22T07:34:23;20.00;;;3.03;;
59418;SDS011;45224;50.904;6.038;2023-12-22T07:35:55;19.52;;;3.47;;
59418;SDS011;45224;50.904;6.038;2023-12-22T07:37:26;20.35;;;3.40;;
59418;SDS011;45224;50.904;6.038;2023-12-22T07:38:56;19.35;;;3.38;;
59418;SDS011;45224;50.904;6.038;2023-12-22T07:40:27;22.65;;;2.63;;
59418;SDS011;45224;50.904;6.038;2023-12-22T07:43:30;17.02;;;2.75;;
59418;SDS011;45224;50.904;6.038;2023-12-22T07:45:01;12.93;;;2.03;;
59418;SDS011;45224;50.904;6.038;2023-12-22T07:46:33;16.83;;;2.58;;
59418;SDS011;45224;50.904;6.038;2023-12-22T07:48:04;16.23;;;3.47;;
59418;SDS011;45224;50.904;6.038;2023-12-22T07:49:34;14.40;;;2.28;;
59418;SDS011;45224;50.904;6.038;2023-12-22T07:51:05;16.40;;;2.60;;
59418;SDS011;45224;50.904;6.038;2023-12-22T07:52:35;15.38;;;2.80;;
59418;SDS011;45224;50.904;6.038;2023-12-22T07:54:08;12.65;;;2.63;;
59418;SDS011;45224;50.904;6.038;2023-12-22T07:55:39;16.67;;;2.38;;
59418;SDS011;45224;50.904;6.038;2023-12-22T07:57:10;17.30;;;2.95;;
59418;SDS011;45224;50.904;6.038;2023-12-22T07:58:40;19.48;;;2.10;;
59418;SDS011;45224;50.904;6.038;2023-12-22T08:00:11;17.88;;;2.72;;
59418;SDS011;45224;50.904;6.038;2023-12-22T08:01:44;18.45;;;2.72;;
59418;SDS011;45224;50.904;6.038;2023-12-22T08:03:15;20.73;;;2.85;;
59418;SDS011;45224;50.904;6.038;2023-12-22T08:04:45;16.73;;;2.72;;
59418;SDS011;45224;50.904;6.038;2023-12-22T08:06:16;19.95;;;3.38;;
59418;SDS011;45224;50.904;6.038;2023-12-22T08:07:46;14.70;;;2.13;;
59418;SDS011;45224;50.904;6.038;2023-12-22T08:09:17;14.43;;;2.38;;
59418;SDS011;45224;50.904;6.038;2023-12-22T08:10:47;21.35;;;3.40;;
59418;SDS011;45224;50.904;6.038;2023-12-22T08:12:18;19.05;;;2.70;;
59418;SDS011;45224;50.904;6.038;2023-12-22T08:13:49;18.83;;;2.97;;
59418;SDS011;45224;50.904;6.038;2023-12-22T08:15:20;19.83;;;2.50;;
59418;SDS011;45224;50.904;6.038;2023-12-22T08:16:50;17.17;;;2.90;;
59418;SDS011;45224;50.904;6.038;2023-12-22T08:18:21;12.20;;;2.72;;
59418;SDS011;45224;50.904;6.038;2023-12-22T08:19:51;20.17;;;3.15;;
59418;SDS011;45224;50.904;6.038;2023-12-22T08:21:22;19.00;;;3.60;;
59418;SDS011;45224;50.904;6.038;2023-12-22T08:22:52;14.82;;;2.30;;
59418;SDS011;45224;50.904;6.038;2023-12-22T08:24:23;16.35;;;2.50;;
59418;SDS011;45224;50.904;6.038;2023-12-22T08:25:53;16.10;;;3.38;;
59418;SDS011;45224;50.904;6.038;2023-12-22T08:27:24;18.65;;;2.92;;
59418;SDS011;45224;50.904;6.038;2023-12-22T08:28:54;12.02;;;2.17;;
59418;SDS011;45224;50.904;6.038;2023-12-22T08:30:25;18.05;;;3.03;;
59418;SDS011;45224;50.904;6.038;2023-12-22T08:31:55;19.52;;;2.63;;
59418;SDS011;45224;50.904;6.038;2023-12-22T08:33:25;13.55;;;2.20;;
59418;SDS011;45224;50.904;6.038;2023-12-22T08:34:56;15.02;;;2.55;;
59418;SDS011;45224;50.904;6.038;2023-12-22T08:36:26;12.27;;;2.35;;
59418;SDS011;45224;50.904;6.038;2023-12-22T08:37:57;12.35;;;3.25;;
59418;SDS011;45224;50.904;6.038;2023-12-22T08:39:27;14.20;;;2.67;;
59418;SDS011;45224;50.904;6.038;2023-12-22T08:40:58;11.15;;;2.00;;
59418;SDS011;45224;50.904;6.038;2023-12-22T08:42:28;9.68;;;2.05;;
59418;SDS011;45224;50.904;6.038;2023-12-22T08:44:00;13.45;;;2.10;;
59418;SDS011;45224;50.904;6.038;2023-12-22T08:45:31;13.55;;;2.28;;
59418;SDS011;45224;50.904;6.038;2023-12-22T08:47:01;9.93;;;2.10;;
59418;SDS011;45224;50.904;6.038;2023-12-22T08:48:32;16.42;;;2.35;;
59418;SDS011;45224;50.904;6.038;2023-12-22T08:50:02;10.65;;;1.88;;
59418;SDS011;45224;50.904;6.038;2023-12-22T08:51:34;14.35;;;2.00;;
59418;SDS011;45224;50.904;6.038;2023-12-22T08:53:04;10.57;;;1.85;;
59418;SDS011;45224;50.904;6.038;2023-12-22T08:54:35;16.90;;;2.33;;
59418;SDS011;45224;50.904;6.038;2023-12-22T08:56:05;9.93;;;1.70;;
59418;SDS011;45224;50.904;6.038;2023-12-22T08:57:37;12.05;;;1.90;;
59418;SDS011;45224;50.904;6.038;2023-12-22T08:59:07;10.77;;;2.00;;
59418;SDS011;45224;50.904;6.038;2023-12-22T09:00:38;13.75;;;2.13;;
59418;SDS011;45224;50.904;6.038;2023-12-22T09:02:09;9.38;;;1.83;;
59418;SDS011;45224;50.904;6.038;2023-12-22T09:03:39;9.88;;;1.58;;
59418;SDS011;45224;50.904;6.038;2023-12-22T09:05:15;10.30;;;1.70;;
59418;SDS011;45224;50.904;6.038;2023-12-22T09:06:45;10.75;;;2.00;;
59418;SDS011;45224;50.904;6.038;2023-12-22T09:08:15;12.63;;;1.95;;